FDX2604 KMIA-KMCO
Flight info
| Callsign | FDX2604 |
|---|---|
| Flight time | 0h 52m |
| Altitude | 22000 |
| Route | FLMGO2 WAPOM RIDES2 |
| Aircraft | B738/M-SDE2E3FGHIRWXY/LB1 |
Departure
| Time | 2026-04-26 18:39 |
|---|---|
| Airport | Miami International Airport (KMIA) |
Arrival
| Time | 2026-04-26 19:31 |
|---|---|
| Airport | Orlando International Airport (KMCO) |
| Time | Latitude | Longitude | Altitude | Speed | Heading |
|---|---|---|---|---|---|
| 2026-04-26 17:46 | 25.79086 | -80.30474 | 14 ft | 0 kts | 48° |
| 2026-04-26 17:51 | 25.79085 | -80.30474 | 14 ft | 0 kts | 48° |
| 2026-04-26 17:51 | 25.79086 | -80.30475 | 14 ft | 0 kts | 48° |
| 2026-04-26 17:51 | 25.79085 | -80.30475 | 14 ft | 0 kts | 48° |
| 2026-04-26 18:24 | 25.79076 | -80.30487 | 17 ft | 2 kts | 51° |
| 2026-04-26 18:25 | 25.79066 | -80.30501 | 15 ft | 2 kts | 53° |
| 2026-04-26 18:25 | 25.79056 | -80.30516 | 14 ft | 2 kts | 59° |
| 2026-04-26 18:25 | 25.79049 | -80.30533 | 16 ft | 2 kts | 72° |
| 2026-04-26 18:25 | 25.79046 | -80.30551 | 17 ft | 2 kts | 109° |
| 2026-04-26 18:26 | 25.79056 | -80.30563 | 15 ft | 2 kts | 167° |
| 2026-04-26 18:26 | 25.79061 | -80.30564 | 18 ft | 0 kts | 174° |
| 2026-04-26 18:28 | 25.79061 | -80.30565 | 18 ft | 0 kts | 174° |
| 2026-04-26 18:30 | 25.79056 | -80.30564 | 15 ft | 2 kts | 175° |
| 2026-04-26 18:30 | 25.79031 | -80.30564 | 15 ft | 5 kts | 179° |
| 2026-04-26 18:30 | 25.78983 | -80.30563 | 14 ft | 9 kts | 179° |
| 2026-04-26 18:30 | 25.78914 | -80.30562 | 14 ft | 11 kts | 178° |
| 2026-04-26 18:31 | 25.78846 | -80.30522 | 15 ft | 13 kts | 103° |
| 2026-04-26 18:31 | 25.78847 | -80.30417 | 14 ft | 14 kts | 87° |
| 2026-04-26 18:31 | 25.78851 | -80.30313 | 14 ft | 13 kts | 88° |
| 2026-04-26 18:31 | 25.78856 | -80.30213 | 14 ft | 13 kts | 86° |
| 2026-04-26 18:32 | 25.78863 | -80.30115 | 14 ft | 12 kts | 86° |
| 2026-04-26 18:32 | 25.78864 | -80.30020 | 14 ft | 12 kts | 88° |
| 2026-04-26 18:32 | 25.78868 | -80.29927 | 14 ft | 12 kts | 85° |
| 2026-04-26 18:32 | 25.78868 | -80.29912 | 14 ft | 0 kts | 88° |
| 2026-04-26 18:33 | 25.78868 | -80.29908 | 14 ft | 2 kts | 88° |
| 2026-04-26 18:33 | 25.78867 | -80.29880 | 14 ft | 6 kts | 104° |
| 2026-04-26 18:34 | 25.78835 | -80.29854 | 14 ft | 6 kts | 169° |
| 2026-04-26 18:34 | 25.78797 | -80.29865 | 14 ft | 6 kts | 227° |
| 2026-04-26 18:34 | 25.78787 | -80.29909 | 14 ft | 6 kts | 264° |
| 2026-04-26 18:34 | 25.78785 | -80.29957 | 14 ft | 7 kts | 266° |
| 2026-04-26 18:35 | 25.78782 | -80.30019 | 14 ft | 10 kts | 266° |
| 2026-04-26 18:35 | 25.78778 | -80.30104 | 14 ft | 12 kts | 267° |
| 2026-04-26 18:35 | 25.78798 | -80.30204 | 14 ft | 15 kts | 297° |
| 2026-04-26 18:35 | 25.78842 | -80.30314 | 14 ft | 17 kts | 284° |
| 2026-04-26 18:36 | 25.78847 | -80.30450 | 14 ft | 18 kts | 267° |
| 2026-04-26 18:36 | 25.78841 | -80.30597 | 14 ft | 20 kts | 268° |
| 2026-04-26 18:36 | 25.78834 | -80.30761 | 14 ft | 22 kts | 267° |
| 2026-04-26 18:36 | 25.78826 | -80.30935 | 15 ft | 23 kts | 267° |
| 2026-04-26 18:37 | 25.78819 | -80.31119 | 14 ft | 25 kts | 267° |
| 2026-04-26 18:37 | 25.78811 | -80.31311 | 14 ft | 24 kts | 266° |
| 2026-04-26 18:37 | 25.78744 | -80.31399 | 14 ft | 15 kts | 180° |
| 2026-04-26 18:37 | 25.78640 | -80.31391 | 14 ft | 15 kts | 155° |
| 2026-04-26 18:38 | 25.78618 | -80.31288 | 14 ft | 14 kts | 88° |
| 2026-04-26 18:38 | 25.78623 | -80.31166 | 14 ft | 23 kts | 87° |
| 2026-04-26 18:38 | 25.78647 | -80.30710 | 15 ft | 96 kts | 86° |
| 2026-04-26 18:38 | 25.78681 | -80.29739 | 27 ft | 154 kts | 88° |
| 2026-04-26 18:39 | 25.78751 | -80.28512 | 639 ft | 160 kts | 89° |
| 2026-04-26 18:39 | 25.78846 | -80.27243 | 1279 ft | 169 kts | 89° |
| 2026-04-26 18:39 | 25.78952 | -80.25835 | 1642 ft | 200 kts | 89° |
| 2026-04-26 18:39 | 25.79076 | -80.24195 | 1892 ft | 225 kts | 88° |
| 2026-04-26 18:40 | 25.79216 | -80.22394 | 2165 ft | 241 kts | 87° |
| 2026-04-26 18:40 | 25.79474 | -80.20490 | 2453 ft | 260 kts | 78° |
| 2026-04-26 18:40 | 25.79988 | -80.18489 | 3065 ft | 276 kts | 68° |
| 2026-04-26 18:40 | 25.81103 | -80.16799 | 4050 ft | 275 kts | 36° |
| 2026-04-26 18:41 | 25.82832 | -80.15978 | 4905 ft | 275 kts | 9° |
| 2026-04-26 18:41 | 25.84737 | -80.15818 | 5763 ft | 276 kts | 359° |
| 2026-04-26 18:41 | 25.86669 | -80.15778 | 6615 ft | 277 kts | 359° |
| 2026-04-26 18:41 | 25.88592 | -80.15730 | 7495 ft | 277 kts | 358° |
| 2026-04-26 18:42 | 25.90516 | -80.15983 | 8414 ft | 279 kts | 342° |
| 2026-04-26 18:42 | 25.92357 | -80.16643 | 9455 ft | 277 kts | 339° |
| 2026-04-26 18:42 | 25.94185 | -80.17337 | 10345 ft | 280 kts | 339° |
| 2026-04-26 18:42 | 25.96102 | -80.18043 | 10639 ft | 303 kts | 340° |
| 2026-04-26 18:43 | 25.98192 | -80.18815 | 10821 ft | 328 kts | 336° |
| 2026-04-26 18:43 | 26.00133 | -80.20173 | 11155 ft | 341 kts | 317° |
| 2026-04-26 18:43 | 26.01868 | -80.21993 | 11815 ft | 346 kts | 316° |
| 2026-04-26 18:43 | 26.03658 | -80.23810 | 12562 ft | 349 kts | 317° |
| 2026-04-26 18:44 | 26.05468 | -80.25612 | 13347 ft | 351 kts | 317° |
| 2026-04-26 18:44 | 26.07302 | -80.27429 | 14083 ft | 354 kts | 317° |
| 2026-04-26 18:44 | 26.09150 | -80.29259 | 14744 ft | 358 kts | 317° |
| 2026-04-26 18:44 | 26.11021 | -80.31114 | 15411 ft | 362 kts | 317° |
| 2026-04-26 18:45 | 26.12913 | -80.32992 | 16113 ft | 366 kts | 317° |
| 2026-04-26 18:45 | 26.14821 | -80.34888 | 16799 ft | 369 kts | 317° |
| 2026-04-26 18:45 | 26.16743 | -80.36800 | 17439 ft | 373 kts | 317° |
| 2026-04-26 18:45 | 26.18693 | -80.38740 | 18071 ft | 378 kts | 317° |
| 2026-04-26 18:46 | 26.20664 | -80.40703 | 18632 ft | 381 kts | 317° |
| 2026-04-26 18:46 | 26.22671 | -80.42660 | 19201 ft | 385 kts | 321° |
| 2026-04-26 18:46 | 26.24995 | -80.44159 | 19755 ft | 389 kts | 334° |
| 2026-04-26 18:46 | 26.27481 | -80.45383 | 20338 ft | 392 kts | 334° |
| 2026-04-26 18:47 | 26.30000 | -80.46667 | 20856 ft | 395 kts | 333° |
| 2026-04-26 18:47 | 26.32469 | -80.47958 | 20930 ft | 398 kts | 333° |
| 2026-04-26 18:47 | 26.34966 | -80.49282 | 20946 ft | 403 kts | 333° |
| 2026-04-26 18:47 | 26.37500 | -80.50631 | 20947 ft | 403 kts | 333° |
| 2026-04-26 18:48 | 26.40019 | -80.51975 | 20943 ft | 402 kts | 333° |
| 2026-04-26 18:48 | 26.42543 | -80.53320 | 20951 ft | 401 kts | 333° |
| 2026-04-26 18:48 | 26.45067 | -80.54665 | 20944 ft | 401 kts | 333° |
| 2026-04-26 18:48 | 26.47583 | -80.56005 | 20942 ft | 401 kts | 333° |
| 2026-04-26 18:49 | 26.50165 | -80.57210 | 20938 ft | 403 kts | 339° |
| 2026-04-26 18:49 | 26.52851 | -80.58122 | 20950 ft | 403 kts | 342° |
| 2026-04-26 18:49 | 26.55572 | -80.58925 | 20948 ft | 404 kts | 343° |
| 2026-04-26 18:49 | 26.58301 | -80.59711 | 20944 ft | 404 kts | 343° |
| 2026-04-26 18:50 | 26.60991 | -80.60503 | 20946 ft | 405 kts | 343° |
| 2026-04-26 18:50 | 26.63700 | -80.61327 | 20948 ft | 405 kts | 342° |
| 2026-04-26 18:50 | 26.66429 | -80.62176 | 20944 ft | 405 kts | 342° |
| 2026-04-26 18:50 | 26.69140 | -80.63032 | 20947 ft | 405 kts | 342° |
| 2026-04-26 18:51 | 26.71851 | -80.63894 | 20946 ft | 405 kts | 342° |
| 2026-04-26 18:51 | 26.74564 | -80.64760 | 20947 ft | 405 kts | 342° |
| 2026-04-26 18:51 | 26.77277 | -80.65625 | 20941 ft | 405 kts | 342° |
| 2026-04-26 18:51 | 26.79988 | -80.66490 | 20947 ft | 405 kts | 342° |
| 2026-04-26 18:52 | 26.82705 | -80.67358 | 20945 ft | 405 kts | 342° |
| 2026-04-26 18:52 | 26.85419 | -80.68224 | 20940 ft | 405 kts | 342° |
| 2026-04-26 18:52 | 26.88127 | -80.69088 | 20944 ft | 405 kts | 342° |
| 2026-04-26 18:52 | 26.90837 | -80.69953 | 20943 ft | 405 kts | 342° |
| 2026-04-26 18:53 | 26.93532 | -80.70866 | 20942 ft | 405 kts | 340° |
| 2026-04-26 18:53 | 26.96198 | -80.71867 | 20941 ft | 404 kts | 339° |
| 2026-04-26 18:53 | 26.98859 | -80.72898 | 20938 ft | 404 kts | 339° |
| 2026-04-26 18:53 | 27.01521 | -80.73934 | 20935 ft | 405 kts | 339° |
| 2026-04-26 18:54 | 27.04182 | -80.74961 | 20934 ft | 405 kts | 339° |
| 2026-04-26 18:54 | 27.06852 | -80.75983 | 20933 ft | 405 kts | 339° |
| 2026-04-26 18:54 | 27.09489 | -80.76987 | 20929 ft | 405 kts | 339° |
| 2026-04-26 18:54 | 27.12158 | -80.78000 | 20930 ft | 405 kts | 339° |
| 2026-04-26 18:55 | 27.14831 | -80.79013 | 20929 ft | 406 kts | 339° |
| 2026-04-26 18:55 | 27.17512 | -80.80029 | 20928 ft | 406 kts | 339° |
| 2026-04-26 18:55 | 27.20190 | -80.81045 | 20927 ft | 406 kts | 339° |
| 2026-04-26 18:55 | 27.22865 | -80.82061 | 20927 ft | 406 kts | 339° |
| 2026-04-26 18:56 | 27.25549 | -80.83080 | 20927 ft | 406 kts | 339° |
| 2026-04-26 18:56 | 27.28230 | -80.84099 | 20924 ft | 407 kts | 339° |
| 2026-04-26 18:56 | 27.30911 | -80.85119 | 20925 ft | 407 kts | 339° |
| 2026-04-26 18:56 | 27.33605 | -80.86106 | 20925 ft | 407 kts | 341° |
| 2026-04-26 18:57 | 27.36338 | -80.86962 | 20932 ft | 408 kts | 343° |
| 2026-04-26 18:57 | 27.38159 | -80.87492 | 20927 ft | 408 kts | 343° |
| 2026-04-26 18:57 | 27.41802 | -80.88527 | 20929 ft | 408 kts | 343° |
| 2026-04-26 18:57 | 27.44553 | -80.89313 | 20927 ft | 408 kts | 343° |
| 2026-04-26 18:58 | 27.47304 | -80.90110 | 20929 ft | 408 kts | 343° |
| 2026-04-26 18:58 | 27.50049 | -80.90916 | 20927 ft | 408 kts | 343° |
| 2026-04-26 18:58 | 27.52789 | -80.91726 | 20927 ft | 404 kts | 343° |
| 2026-04-26 18:58 | 27.55460 | -80.92519 | 20909 ft | 390 kts | 343° |
| 2026-04-26 18:59 | 27.58069 | -80.93296 | 20926 ft | 386 kts | 343° |
| 2026-04-26 18:59 | 27.60669 | -80.94072 | 20936 ft | 387 kts | 343° |
| 2026-04-26 18:59 | 27.63276 | -80.94852 | 20844 ft | 389 kts | 343° |
| 2026-04-26 18:59 | 27.65891 | -80.95634 | 20453 ft | 386 kts | 343° |
| 2026-04-26 19:00 | 27.68476 | -80.96406 | 19938 ft | 383 kts | 343° |
| 2026-04-26 19:00 | 27.71044 | -80.97173 | 19445 ft | 379 kts | 343° |
| 2026-04-26 19:00 | 27.73587 | -80.97933 | 18942 ft | 376 kts | 343° |
| 2026-04-26 19:00 | 27.76109 | -80.98688 | 18430 ft | 374 kts | 343° |
| 2026-04-26 19:01 | 27.78618 | -80.99439 | 17856 ft | 372 kts | 343° |
| 2026-04-26 19:01 | 27.81075 | -81.00175 | 17323 ft | 368 kts | 343° |
| 2026-04-26 19:01 | 27.83542 | -81.00914 | 16784 ft | 365 kts | 343° |
| 2026-04-26 19:01 | 27.85985 | -81.01647 | 16277 ft | 362 kts | 343° |
| 2026-04-26 19:02 | 27.88417 | -81.02376 | 15779 ft | 358 kts | 343° |
| 2026-04-26 19:02 | 27.90815 | -81.03096 | 15294 ft | 356 kts | 343° |
| 2026-04-26 19:02 | 27.93197 | -81.03811 | 14799 ft | 353 kts | 342° |
| 2026-04-26 19:02 | 27.94746 | -81.04342 | 14471 ft | 350 kts | 339° |
| 2026-04-26 19:03 | 27.97783 | -81.05624 | 13842 ft | 346 kts | 336° |
| 2026-04-26 19:03 | 28.00017 | -81.06616 | 13327 ft | 344 kts | 336° |
| 2026-04-26 19:03 | 28.02248 | -81.07593 | 12815 ft | 342 kts | 337° |
| 2026-04-26 19:03 | 28.04460 | -81.08541 | 12330 ft | 339 kts | 337° |
| 2026-04-26 19:04 | 28.06668 | -81.09478 | 11844 ft | 337 kts | 338° |
| 2026-04-26 19:04 | 28.08856 | -81.10408 | 11375 ft | 335 kts | 337° |
| 2026-04-26 19:04 | 28.11026 | -81.11355 | 10898 ft | 333 kts | 336° |
| 2026-04-26 19:04 | 28.13162 | -81.12298 | 10673 ft | 324 kts | 336° |
| 2026-04-26 19:05 | 28.17250 | -81.14105 | 10347 ft | 305 kts | 336° |
| 2026-04-26 19:05 | 28.19194 | -81.14964 | 10224 ft | 296 kts | 336° |
| 2026-04-26 19:05 | 28.21060 | -81.15787 | 10081 ft | 287 kts | 336° |
| 2026-04-26 19:06 | 28.22890 | -81.16595 | 9974 ft | 278 kts | 336° |
| 2026-04-26 19:06 | 28.24694 | -81.17391 | 9655 ft | 277 kts | 336° |
| 2026-04-26 19:06 | 28.26489 | -81.18183 | 9354 ft | 275 kts | 337° |
| 2026-04-26 19:06 | 28.28351 | -81.18676 | 9039 ft | 278 kts | 353° |
| 2026-04-26 19:07 | 28.30282 | -81.18716 | 8759 ft | 277 kts | 358° |
| 2026-04-26 19:07 | 28.32203 | -81.18688 | 8454 ft | 275 kts | 358° |
| 2026-04-26 19:07 | 28.34100 | -81.18683 | 8311 ft | 269 kts | 357° |
| 2026-04-26 19:07 | 28.35945 | -81.18699 | 8172 ft | 261 kts | 356° |
| 2026-04-26 19:08 | 28.37740 | -81.18725 | 8053 ft | 254 kts | 356° |
| 2026-04-26 19:08 | 28.39480 | -81.18753 | 7903 ft | 248 kts | 356° |
| 2026-04-26 19:08 | 28.41180 | -81.18770 | 7690 ft | 247 kts | 356° |
| 2026-04-26 19:08 | 28.42905 | -81.18783 | 7480 ft | 248 kts | 356° |
| 2026-04-26 19:09 | 28.44629 | -81.18797 | 7255 ft | 247 kts | 356° |
| 2026-04-26 19:09 | 28.46344 | -81.18809 | 7035 ft | 246 kts | 356° |
| 2026-04-26 19:09 | 28.48051 | -81.18823 | 6811 ft | 244 kts | 356° |
| 2026-04-26 19:09 | 28.49748 | -81.18836 | 6597 ft | 244 kts | 356° |
| 2026-04-26 19:10 | 28.51443 | -81.18850 | 6340 ft | 243 kts | 356° |
| 2026-04-26 19:10 | 28.53137 | -81.18864 | 6120 ft | 242 kts | 356° |
| 2026-04-26 19:10 | 28.54797 | -81.18890 | 5997 ft | 235 kts | 354° |
| 2026-04-26 19:10 | 28.56349 | -81.19421 | 5496 ft | 239 kts | 318° |
| 2026-04-26 19:11 | 28.57253 | -81.20964 | 5150 ft | 241 kts | 284° |
| 2026-04-26 19:11 | 28.57597 | -81.22834 | 4783 ft | 240 kts | 282° |
| 2026-04-26 19:11 | 28.57985 | -81.24656 | 4411 ft | 237 kts | 283° |
| 2026-04-26 19:11 | 28.58380 | -81.26429 | 4081 ft | 230 kts | 284° |
| 2026-04-26 19:12 | 28.58767 | -81.28162 | 3764 ft | 222 kts | 283° |
| 2026-04-26 19:12 | 28.59135 | -81.29815 | 3427 ft | 217 kts | 284° |
| 2026-04-26 19:12 | 28.59224 | -81.31498 | 3036 ft | 203 kts | 253° |
| 2026-04-26 19:12 | 28.58395 | -81.32653 | 2823 ft | 193 kts | 210° |
| 2026-04-26 19:13 | 28.57087 | -81.32824 | 2482 ft | 191 kts | 173° |
| 2026-04-26 19:13 | 28.55802 | -81.32672 | 2204 ft | 180 kts | 189° |
| 2026-04-26 19:13 | 28.54588 | -81.32841 | 1990 ft | 174 kts | 185° |
| 2026-04-26 19:13 | 28.53385 | -81.32764 | 1758 ft | 169 kts | 179° |
| 2026-04-26 19:14 | 28.52236 | -81.32752 | 1514 ft | 164 kts | 184° |
| 2026-04-26 19:14 | 28.51136 | -81.32754 | 1309 ft | 152 kts | 184° |
| 2026-04-26 19:14 | 28.50134 | -81.32746 | 1156 ft | 145 kts | 182° |
| 2026-04-26 19:14 | 28.49796 | -81.32740 | 1082 ft | 149 kts | 182° |
| 2026-04-26 19:15 | 28.48141 | -81.32727 | 776 ft | 135 kts | 181° |
| 2026-04-26 19:15 | 28.47203 | -81.32720 | 582 ft | 134 kts | 181° |
| 2026-04-26 19:15 | 28.46586 | -81.32723 | 472 ft | 134 kts | 180° |
| 2026-04-26 19:15 | 28.45671 | -81.32721 | 296 ft | 133 kts | 178° |
| 2026-04-26 19:16 | 28.44747 | -81.32700 | 135 ft | 131 kts | 178° |
| 2026-04-26 19:16 | 28.43868 | -81.32687 | 100 ft | 113 kts | 179° |
| 2026-04-26 19:16 | 28.43110 | -81.32685 | 164 ft | 98 kts | 180° |
| 2026-04-26 19:16 | 28.42266 | -81.32698 | 213 ft | 151 kts | 180° |
| 2026-04-26 19:17 | 28.41126 | -81.32727 | 878 ft | 178 kts | 187° |
| 2026-04-26 19:17 | 28.39875 | -81.33367 | 1141 ft | 218 kts | 227° |
| 2026-04-26 19:17 | 28.39292 | -81.34949 | 1729 ft | 226 kts | 269° |
| 2026-04-26 19:17 | 28.39306 | -81.36788 | 2390 ft | 241 kts | 264° |
| 2026-04-26 19:18 | 28.39002 | -81.38703 | 2839 ft | 248 kts | 260° |
| 2026-04-26 19:18 | 28.38739 | -81.40609 | 2985 ft | 241 kts | 263° |
| 2026-04-26 19:18 | 28.38525 | -81.42457 | 2994 ft | 229 kts | 263° |
| 2026-04-26 19:18 | 28.38337 | -81.44194 | 2981 ft | 217 kts | 264° |
| 2026-04-26 19:19 | 28.38303 | -81.45859 | 2982 ft | 209 kts | 285° |
| 2026-04-26 19:19 | 28.39176 | -81.47244 | 3037 ft | 240 kts | 323° |
| 2026-04-26 19:19 | 28.40822 | -81.48019 | 3012 ft | 264 kts | 347° |
| 2026-04-26 19:19 | 28.42672 | -81.48067 | 2995 ft | 268 kts | 5° |
| 2026-04-26 19:20 | 28.44514 | -81.47767 | 2978 ft | 267 kts | 5° |
| 2026-04-26 19:20 | 28.45705 | -81.47579 | 2980 ft | 264 kts | 4° |
| 2026-04-26 19:20 | 28.48141 | -81.47212 | 3111 ft | 266 kts | 5° |
| 2026-04-26 19:20 | 28.50001 | -81.46948 | 3941 ft | 269 kts | 5° |
| 2026-04-26 19:21 | 28.51868 | -81.46691 | 5088 ft | 270 kts | 4° |
| 2026-04-26 19:21 | 28.53730 | -81.46442 | 5719 ft | 272 kts | 4° |
| 2026-04-26 19:21 | 28.55599 | -81.46196 | 5941 ft | 273 kts | 4° |
| 2026-04-26 19:21 | 28.57503 | -81.45949 | 5935 ft | 277 kts | 4° |
| 2026-04-26 19:22 | 28.59432 | -81.45699 | 5929 ft | 275 kts | 4° |
| 2026-04-26 19:22 | 28.61302 | -81.45459 | 5925 ft | 273 kts | 4° |
| 2026-04-26 19:22 | 28.63185 | -81.45217 | 5926 ft | 270 kts | 4° |
| 2026-04-26 19:22 | 28.65021 | -81.44980 | 5915 ft | 259 kts | 4° |
| 2026-04-26 19:23 | 28.66768 | -81.44754 | 5908 ft | 247 kts | 4° |
| 2026-04-26 19:23 | 28.68431 | -81.44540 | 5854 ft | 237 kts | 4° |
| 2026-04-26 19:23 | 28.70070 | -81.44328 | 5765 ft | 236 kts | 5° |
| 2026-04-26 19:23 | 28.71618 | -81.43693 | 5638 ft | 241 kts | 36° |
| 2026-04-26 19:24 | 28.72553 | -81.42180 | 5541 ft | 238 kts | 72° |
| 2026-04-26 19:24 | 28.72632 | -81.40331 | 5435 ft | 237 kts | 102° |
| 2026-04-26 19:24 | 28.71602 | -81.36794 | 4943 ft | 234 kts | 110° |
| 2026-04-26 19:25 | 28.71040 | -81.35068 | 4721 ft | 229 kts | 113° |
| 2026-04-26 19:25 | 28.70513 | -81.34021 | 4514 ft | 225 kts | 134° |
| 2026-04-26 19:25 | 28.68723 | -81.33161 | 4306 ft | 210 kts | 179° |
| 2026-04-26 19:25 | 28.67299 | -81.33037 | 4251 ft | 199 kts | 178° |
| 2026-04-26 19:26 | 28.65880 | -81.32938 | 4052 ft | 207 kts | 181° |
| 2026-04-26 19:26 | 28.64457 | -81.32896 | 3804 ft | 203 kts | 182° |
| 2026-04-26 19:26 | 28.63044 | -81.32875 | 3547 ft | 199 kts | 183° |
| 2026-04-26 19:26 | 28.61675 | -81.32863 | 3301 ft | 198 kts | 183° |
| 2026-04-26 19:27 | 28.60293 | -81.32848 | 3051 ft | 199 kts | 183° |
| 2026-04-26 19:27 | 28.58893 | -81.32836 | 2775 ft | 203 kts | 183° |
| 2026-04-26 19:27 | 28.57496 | -81.32821 | 2483 ft | 197 kts | 183° |
| 2026-04-26 19:27 | 28.56170 | -81.32805 | 2248 ft | 185 kts | 183° |
| 2026-04-26 19:28 | 28.54944 | -81.32794 | 2019 ft | 174 kts | 182° |
| 2026-04-26 19:28 | 28.53764 | -81.32781 | 1827 ft | 162 kts | 184° |
| 2026-04-26 19:28 | 28.52670 | -81.32771 | 1601 ft | 152 kts | 183° |
| 2026-04-26 19:28 | 28.51652 | -81.32762 | 1424 ft | 144 kts | 183° |
| 2026-04-26 19:29 | 28.50650 | -81.32752 | 1209 ft | 142 kts | 182° |
| 2026-04-26 19:29 | 28.49680 | -81.32740 | 1078 ft | 147 kts | 183° |
| 2026-04-26 19:29 | 28.48668 | -81.32731 | 874 ft | 138 kts | 181° |
| 2026-04-26 19:29 | 28.47729 | -81.32758 | 620 ft | 132 kts | 183° |
| 2026-04-26 19:30 | 28.46834 | -81.32746 | 471 ft | 125 kts | 178° |
| 2026-04-26 19:30 | 28.45941 | -81.32722 | 335 ft | 127 kts | 179° |
| 2026-04-26 19:30 | 28.45058 | -81.32710 | 194 ft | 130 kts | 178° |
| 2026-04-26 19:30 | 28.44444 | -81.32697 | 111 ft | 131 kts | 179° |
| 2026-04-26 19:31 | 28.43427 | -81.32684 | 100 ft | 72 kts | 179° |
| 2026-04-26 19:31 | 28.43096 | -81.32680 | 99 ft | 31 kts | 180° |
| 2026-04-26 19:31 | 28.42888 | -81.32680 | 102 ft | 28 kts | 179° |
| 2026-04-26 19:31 | 28.42717 | -81.32678 | 99 ft | 21 kts | 184° |
| 2026-04-26 19:32 | 28.42651 | -81.32802 | 98 ft | 20 kts | 268° |
| 2026-04-26 19:32 | 28.42664 | -81.32910 | 99 ft | 13 kts | 302° |
| 2026-04-26 19:32 | 28.42731 | -81.32921 | 98 ft | 10 kts | 358° |
| 2026-04-26 19:32 | 28.42800 | -81.32922 | 99 ft | 10 kts | 0° |
| 2026-04-26 19:33 | 28.42852 | -81.32958 | 97 ft | 9 kts | 286° |
| 2026-04-26 19:33 | 28.42849 | -81.33033 | 97 ft | 9 kts | 269° |
| 2026-04-26 19:33 | 28.42846 | -81.33102 | 97 ft | 8 kts | 269° |
| 2026-04-26 19:33 | 28.42845 | -81.33137 | 97 ft | 0 kts | 268° |